createdAt,value
2019-01-15T00:00:09.339Z,9.83
2019-01-15T00:02:38.585Z,16.47
2019-01-15T00:05:08.170Z,11.07
2019-01-15T00:07:36.633Z,20.77
2019-01-15T00:10:08.242Z,14.03
2019-01-15T00:12:36.969Z,16.67
2019-01-15T00:15:08.305Z,15.40
2019-01-15T00:17:36.730Z,20.23
2019-01-15T00:20:13.228Z,17.50
2019-01-15T00:22:41.976Z,20.20
2019-01-15T00:25:10.639Z,32.23
2019-01-15T00:27:39.099Z,13.73
2019-01-15T00:30:10.905Z,15.77
2019-01-15T00:32:39.321Z,24.73
2019-01-15T00:35:08.424Z,16.50
2019-01-15T00:37:36.833Z,13.77
2019-01-15T00:40:11.258Z,22.63
2019-01-15T00:42:39.729Z,15.23
2019-01-15T00:45:10.290Z,21.53
2019-01-15T00:47:38.826Z,10.60
2019-01-15T00:50:10.719Z,19.57
2019-01-15T00:52:39.147Z,18.27
2019-01-15T00:55:09.657Z,13.23
2019-01-15T00:57:39.267Z,15.17
2019-01-15T01:00:13.611Z,20.83
2019-01-15T01:02:42.090Z,22.53
2019-01-15T01:05:11.034Z,21.83
2019-01-15T01:07:39.533Z,24.73
2019-01-15T01:10:11.043Z,16.77
2019-01-15T01:12:39.527Z,15.33
2019-01-15T01:15:16.628Z,19.33
2019-01-15T01:17:45.129Z,24.60
2019-01-15T01:20:16.777Z,18.50
2019-01-15T01:22:45.320Z,20.37
2019-01-15T01:25:14.570Z,15.27
2019-01-15T01:27:43.007Z,16.53
2019-01-15T01:30:17.376Z,23.47
2019-01-15T01:32:45.849Z,14.13
2019-01-15T01:35:14.344Z,14.50
2019-01-15T01:37:42.767Z,12.33
2019-01-15T01:40:14.288Z,16.43
2019-01-15T01:42:42.804Z,18.20
2019-01-15T01:45:13.780Z,16.80
2019-01-15T01:47:42.306Z,17.23
2019-01-15T01:50:13.275Z,22.00
2019-01-15T01:52:41.871Z,20.83
2019-01-15T01:55:12.584Z,17.20
2019-01-15T01:57:41.131Z,16.70
2019-01-15T02:00:12.927Z,17.80
2019-01-15T02:02:41.369Z,23.93
2019-01-15T02:05:10.248Z,17.60
2019-01-15T02:07:38.693Z,14.17
2019-01-15T02:10:10.165Z,20.53
2019-01-15T02:12:38.720Z,15.43
2019-01-15T02:15:10.455Z,11.37
2019-01-15T02:17:39.116Z,21.47
2019-01-15T02:20:11.085Z,11.57
2019-01-15T02:22:39.638Z,15.53
2019-01-15T02:25:09.643Z,17.97
2019-01-15T02:27:39.704Z,23.43
2019-01-15T02:30:11.204Z,18.50
2019-01-15T02:32:39.778Z,18.63
2019-01-15T02:35:08.456Z,14.07
2019-01-15T02:37:36.953Z,15.60
2019-01-15T02:40:11.355Z,17.50
2019-01-15T02:42:46.358Z,12.43
2019-01-15T02:45:13.281Z,20.40
2019-01-15T02:47:41.718Z,14.03
2019-01-15T02:50:13.455Z,12.93
2019-01-15T02:52:41.869Z,18.70
2019-01-15T02:55:12.142Z,10.90
2019-01-15T02:57:40.583Z,18.20
2019-01-15T03:00:12.461Z,17.00
2019-01-15T03:02:40.916Z,15.57
2019-01-15T03:05:11.083Z,18.60
2019-01-15T03:07:39.497Z,15.67
2019-01-15T03:10:11.011Z,21.70
2019-01-15T03:12:41.095Z,20.03
2019-01-15T03:15:09.833Z,16.00
2019-01-15T03:17:38.296Z,21.23
2019-01-15T03:20:09.762Z,23.97
2019-01-15T03:22:38.268Z,21.13
2019-01-15T03:25:08.332Z,16.03
2019-01-15T03:27:36.840Z,13.13
2019-01-15T03:30:20.575Z,21.60
2019-01-15T03:32:48.991Z,12.40
2019-01-15T03:35:17.494Z,14.60
2019-01-15T03:37:46.123Z,19.67
2019-01-15T03:40:18.409Z,20.87
2019-01-15T03:42:46.849Z,18.00
2019-01-15T03:45:15.618Z,16.27
2019-01-15T03:47:44.069Z,12.83
2019-01-15T03:50:13.416Z,14.93
2019-01-15T03:52:41.950Z,22.80
2019-01-15T03:55:12.409Z,11.87
2019-01-15T03:57:40.914Z,27.10
2019-01-15T04:00:20.861Z,21.97
2019-01-15T04:02:50.029Z,10.33
2019-01-15T04:05:19.093Z,13.33
2019-01-15T04:07:49.221Z,15.47
2019-01-15T04:10:17.744Z,15.97
2019-01-15T04:12:49.130Z,18.63
2019-01-15T04:15:17.579Z,21.13
2019-01-15T04:17:45.992Z,26.03
2019-01-15T04:20:18.357Z,11.37
2019-01-15T04:22:46.904Z,14.87
2019-01-15T04:25:16.247Z,13.33
2019-01-15T04:27:44.693Z,18.93
2019-01-15T04:30:18.725Z,12.80
2019-01-15T04:32:47.161Z,20.13
2019-01-15T04:35:16.032Z,12.60
2019-01-15T04:37:44.521Z,14.53
2019-01-15T04:40:18.363Z,10.27
2019-01-15T04:42:46.850Z,16.27
2019-01-15T04:45:18.128Z,17.40
2019-01-15T04:47:46.627Z,18.23
2019-01-15T04:50:16.135Z,17.57
2019-01-15T04:52:46.590Z,18.57
2019-01-15T04:55:15.191Z,14.20
2019-01-15T04:57:43.622Z,18.90
2019-01-15T05:00:15.189Z,14.07
2019-01-15T05:02:44.126Z,10.57
2019-01-15T05:05:13.031Z,12.83
2019-01-15T05:07:41.445Z,18.23
2019-01-15T05:10:12.550Z,9.00
2019-01-15T05:12:41.068Z,15.73
2019-01-15T05:15:13.090Z,9.93
2019-01-15T05:17:41.969Z,17.33
2019-01-15T05:20:13.261Z,17.90
2019-01-15T05:22:41.757Z,21.70
2019-01-15T05:25:16.042Z,11.50
2019-01-15T05:27:44.521Z,12.73
2019-01-15T05:30:16.403Z,14.03
2019-01-15T05:32:44.902Z,15.17
2019-01-15T05:35:13.512Z,16.97
2019-01-15T05:37:41.955Z,12.07
2019-01-15T05:40:13.191Z,16.13
2019-01-15T05:42:41.636Z,14.97
2019-01-15T05:45:14.424Z,14.23
2019-01-15T05:47:43.240Z,12.07
2019-01-15T05:50:13.460Z,18.13
2019-01-15T05:52:41.963Z,11.87
2019-01-15T05:55:10.498Z,10.27
2019-01-15T05:57:38.918Z,13.30
2019-01-15T06:00:10.484Z,12.23
2019-01-15T06:02:38.935Z,10.67
2019-01-15T06:05:09.922Z,13.47
2019-01-15T06:07:38.464Z,6.60
2019-01-15T06:10:12.492Z,17.47
2019-01-15T06:12:40.941Z,6.83
2019-01-15T06:15:12.874Z,12.80
2019-01-15T06:17:41.386Z,9.33
2019-01-15T06:20:13.178Z,12.23
2019-01-15T06:22:41.646Z,8.97
2019-01-15T06:25:11.390Z,11.60
2019-01-15T06:27:39.943Z,13.07
2019-01-15T06:30:14.050Z,20.63
2019-01-15T06:32:42.553Z,12.13
2019-01-15T06:35:11.134Z,16.13
2019-01-15T06:37:39.641Z,10.67
2019-01-15T06:40:11.125Z,10.57
2019-01-15T06:42:39.659Z,11.17
2019-01-15T06:45:14.088Z,12.63
2019-01-15T06:47:42.628Z,10.97
2019-01-15T06:50:13.595Z,13.83
2019-01-15T06:52:42.272Z,18.63
2019-01-15T06:55:16.804Z,15.03
2019-01-15T06:57:45.332Z,9.70
2019-01-15T07:00:19.094Z,13.87
2019-01-15T07:02:47.618Z,6.93
2019-01-15T07:05:16.596Z,11.93
2019-01-15T07:07:45.032Z,17.13
2019-01-15T07:10:28.749Z,14.00
2019-01-15T07:12:57.197Z,12.50
2019-01-15T07:15:25.721Z,11.73
2019-01-15T07:17:54.808Z,12.27
2019-01-15T07:20:23.256Z,10.67
2019-01-15T07:22:51.672Z,18.47
2019-01-15T07:25:22.888Z,9.23
2019-01-15T07:27:51.868Z,15.03
2019-01-15T07:30:26.700Z,11.93
2019-01-15T07:32:55.414Z,10.40
2019-01-15T07:35:24.275Z,11.00
2019-01-15T07:37:52.682Z,10.23
2019-01-15T07:40:21.461Z,11.43
2019-01-15T07:42:50.130Z,8.47
2019-01-15T07:45:18.571Z,11.50
2019-01-15T07:47:47.180Z,10.40
2019-01-15T07:50:20.208Z,11.07
2019-01-15T07:52:49.017Z,8.63
2019-01-15T07:55:19.538Z,11.40
2019-01-15T07:57:48.099Z,11.63
2019-01-15T08:00:27.198Z,13.80
2019-01-15T08:02:55.990Z,12.00
2019-01-15T08:05:28.894Z,14.90
2019-01-15T08:07:57.669Z,14.90
2019-01-15T08:10:26.084Z,13.73
2019-01-15T08:12:54.535Z,14.93
2019-01-15T08:15:28.008Z,14.90
2019-01-15T08:17:56.800Z,18.60
2019-01-15T08:20:25.901Z,12.27
2019-01-15T08:22:54.330Z,15.97
2019-01-15T08:25:24.284Z,16.37
2019-01-15T08:27:52.867Z,20.07
2019-01-15T08:30:26.774Z,21.10
2019-01-15T08:32:55.210Z,12.90
2019-01-15T08:35:23.909Z,20.83
2019-01-15T08:37:52.366Z,17.47
2019-01-15T08:40:20.864Z,26.23
2019-01-15T08:42:49.422Z,18.97
2019-01-15T08:45:18.829Z,24.97
2019-01-15T08:47:59.834Z,25.73
2019-01-15T08:50:31.129Z,20.27
2019-01-15T08:52:59.565Z,20.03
2019-01-15T08:55:28.142Z,20.43
2019-01-15T08:57:56.603Z,21.83
2019-01-15T09:00:25.114Z,22.00
2019-01-15T09:02:53.747Z,21.50
2019-01-15T09:05:22.434Z,21.03
2019-01-15T09:07:50.996Z,18.93
2019-01-15T09:10:19.687Z,21.57
2019-01-15T09:12:48.446Z,20.23
2019-01-15T09:15:21.928Z,24.60
2019-01-15T09:17:50.723Z,24.23
2019-01-15T09:20:22.657Z,18.60
2019-01-15T09:22:51.160Z,25.40
2019-01-15T09:25:19.880Z,20.97
2019-01-15T09:27:48.477Z,22.67
2019-01-15T09:30:19.621Z,22.80
2019-01-15T09:32:48.243Z,23.97
2019-01-15T09:35:16.751Z,22.50
2019-01-15T09:37:47.123Z,22.30
2019-01-15T09:40:18.317Z,20.40
2019-01-15T09:42:46.754Z,24.13
2019-01-15T09:45:17.850Z,17.87
2019-01-15T09:47:50.860Z,15.87
2019-01-15T09:50:19.703Z,21.23
2019-01-15T09:52:48.211Z,21.60
2019-01-15T09:55:16.643Z,29.47
2019-01-15T09:57:45.124Z,20.97
2019-01-15T10:00:16.426Z,23.33
2019-01-15T10:02:45.018Z,24.93
2019-01-15T10:05:13.559Z,21.30
2019-01-15T10:07:42.053Z,26.43
2019-01-15T10:10:15.439Z,25.93
2019-01-15T10:12:44.070Z,23.57
2019-01-15T10:15:21.141Z,29.13
2019-01-15T10:17:49.650Z,25.80
2019-01-15T10:20:19.333Z,28.13
2019-01-15T10:22:49.142Z,25.67
2019-01-15T10:25:25.621Z,32.40
2019-01-15T10:27:54.939Z,25.67
2019-01-15T10:30:39.884Z,31.13
2019-01-15T10:33:20.169Z,31.03
2019-01-15T10:35:54.775Z,33.47
2019-01-15T10:38:25.777Z,38.33
2019-01-15T10:40:55.903Z,33.30
2019-01-15T10:43:24.394Z,32.27
2019-01-15T10:45:53.853Z,33.63
2019-01-15T10:48:22.347Z,34.67
2019-01-15T10:50:50.873Z,30.00
2019-01-15T10:53:19.379Z,36.37
2019-01-15T10:55:47.899Z,34.00
2019-01-15T10:58:17.733Z,33.73
2019-01-15T11:00:46.568Z,31.90
2019-01-15T11:03:15.057Z,34.20
2019-01-15T11:05:43.511Z,37.57
2019-01-15T11:08:12.071Z,36.23
2019-01-15T11:10:40.592Z,38.13
2019-01-15T11:13:09.106Z,33.10
2019-01-15T11:15:43.097Z,36.33
2019-01-15T11:18:07.806Z,34.83
2019-01-15T11:20:36.313Z,35.80
2019-01-15T11:23:04.914Z,36.77
2019-01-15T11:25:33.393Z,38.43
2019-01-15T11:28:02.043Z,43.80
2019-01-15T11:30:30.552Z,38.03
2019-01-15T11:32:58.982Z,36.70
2019-01-15T11:35:27.429Z,36.80
2019-01-15T11:37:55.875Z,38.63
2019-01-15T11:40:24.339Z,40.90
2019-01-15T11:42:52.796Z,44.93
2019-01-15T11:45:21.327Z,39.67
2019-01-15T11:47:51.673Z,47.53
2019-01-15T11:50:21.969Z,49.20
2019-01-15T11:52:50.557Z,44.47
2019-01-15T11:55:21.204Z,43.33
2019-01-15T11:57:49.729Z,41.57
2019-01-15T12:00:31.249Z,42.53
2019-01-15T12:03:04.014Z,43.37
2019-01-15T12:05:50.508Z,34.57
2019-01-15T12:08:20.594Z,42.13
2019-01-15T12:11:02.910Z,34.57
2019-01-15T12:13:33.021Z,34.10
2019-01-15T12:16:20.978Z,36.17
2019-01-15T12:19:02.789Z,37.30
2019-01-15T12:21:35.884Z,32.83
2019-01-15T12:24:06.300Z,40.83
2019-01-15T12:26:52.684Z,37.83
2019-01-15T12:29:22.835Z,41.90
2019-01-15T12:31:52.934Z,33.53
2019-01-15T12:34:41.334Z,35.60
2019-01-15T12:37:11.394Z,33.03
2019-01-15T12:39:57.414Z,29.33
2019-01-15T12:42:27.521Z,35.97
2019-01-15T12:45:09.567Z,31.47
2019-01-15T12:47:39.657Z,28.83
2019-01-15T12:50:12.079Z,27.27
2019-01-15T12:52:44.873Z,31.17
2019-01-15T12:55:17.751Z,28.93
2019-01-15T12:58:03.979Z,23.63
2019-01-15T13:00:40.318Z,30.43
2019-01-15T13:03:19.362Z,28.30
2019-01-15T13:05:49.439Z,26.27
2019-01-15T13:08:22.351Z,32.00
2019-01-15T13:10:54.915Z,27.20
2019-01-15T13:13:33.739Z,29.50
2019-01-15T13:16:09.329Z,30.07
2019-01-15T13:18:39.457Z,30.33
2019-01-15T13:21:15.432Z,26.70
2019-01-15T13:24:01.795Z,31.60
2019-01-15T13:26:43.914Z,26.70
2019-01-15T13:29:17.117Z,30.10
2019-01-15T13:31:53.119Z,26.00
2019-01-15T13:34:31.900Z,33.40
2019-01-15T13:37:18.311Z,27.20
2019-01-15T13:40:00.036Z,30.53
2019-01-15T13:42:36.072Z,29.73
2019-01-15T13:45:25.110Z,28.90
2019-01-15T13:48:10.499Z,31.33
2019-01-15T13:50:49.727Z,24.93
2019-01-15T13:53:25.972Z,28.03
2019-01-15T13:55:56.059Z,27.97
2019-01-15T13:58:28.904Z,25.83
2019-01-15T14:01:11.232Z,25.50
2019-01-15T14:03:44.313Z,22.70
2019-01-15T14:06:17.179Z,18.77
2019-01-15T14:08:58.973Z,24.63
2019-01-15T14:11:34.536Z,18.23
2019-01-15T14:14:13.414Z,30.17
2019-01-15T14:16:44.240Z,26.37
2019-01-15T14:19:17.467Z,30.73
2019-01-15T14:22:01.903Z,24.27
2019-01-15T14:24:34.828Z,23.37
2019-01-15T14:27:05.184Z,19.07
2019-01-15T14:29:38.589Z,24.07
2019-01-15T14:32:08.725Z,23.77
2019-01-15T14:34:45.125Z,22.20
2019-01-15T14:37:15.357Z,21.07
2019-01-15T14:39:45.534Z,18.53
2019-01-15T14:42:33.757Z,19.80
2019-01-15T14:45:06.586Z,20.27
2019-01-15T14:47:36.684Z,21.90
2019-01-15T14:50:09.826Z,20.30
2019-01-15T14:52:46.099Z,19.13
2019-01-15T14:55:23.086Z,19.70
2019-01-15T14:58:01.998Z,20.70
2019-01-15T15:00:32.233Z,18.43
2019-01-15T15:03:05.026Z,17.83
2019-01-15T15:05:38.369Z,24.20
2019-01-15T15:08:09.390Z,18.23
2019-01-15T15:10:55.763Z,23.57
2019-01-15T15:13:38.025Z,19.97
2019-01-15T15:16:14.336Z,21.50
2019-01-15T15:18:47.363Z,19.50
2019-01-15T15:21:17.722Z,17.67
2019-01-15T15:23:49.178Z,24.13
2019-01-15T15:26:25.371Z,23.23
2019-01-15T15:28:58.211Z,22.27
2019-01-15T15:31:33.834Z,22.53
2019-01-15T15:34:03.921Z,18.97
2019-01-15T15:36:49.227Z,17.60
2019-01-15T15:39:37.722Z,29.43
2019-01-15T15:42:26.175Z,24.97
2019-01-15T15:44:56.433Z,20.13
2019-01-15T15:47:26.753Z,20.47
2019-01-15T15:50:13.596Z,19.90
2019-01-15T15:52:46.998Z,19.80
2019-01-15T15:55:33.811Z,21.03
2019-01-15T15:58:03.877Z,24.23
2019-01-15T16:00:49.098Z,23.73
2019-01-15T16:03:19.222Z,24.10
2019-01-15T16:06:05.597Z,24.17
2019-01-15T16:08:35.695Z,20.50
2019-01-15T16:11:18.196Z,22.07
2019-01-15T16:13:54.229Z,23.63
2019-01-15T16:16:30.291Z,20.20
2019-01-15T16:19:03.249Z,24.40
2019-01-15T16:21:49.639Z,24.57
2019-01-15T16:24:19.722Z,19.77
2019-01-15T16:27:06.013Z,24.07
2019-01-15T16:29:39.845Z,21.47
2019-01-15T16:32:10.608Z,23.37
2019-01-15T16:34:57.517Z,19.87
2019-01-15T16:37:27.752Z,22.37
2019-01-15T16:40:13.930Z,19.93
2019-01-15T16:42:44.246Z,23.53
2019-01-15T16:45:17.774Z,29.67
2019-01-15T16:47:50.925Z,19.80
2019-01-15T16:50:23.623Z,20.60
2019-01-15T16:52:56.539Z,22.90
2019-01-15T16:55:30.896Z,23.23
2019-01-15T16:58:04.274Z,25.40
2019-01-15T17:00:50.804Z,29.73
2019-01-15T17:03:20.948Z,21.13
2019-01-15T17:06:09.325Z,22.70
2019-01-15T17:08:45.397Z,19.10
2019-01-15T17:11:15.687Z,23.90
2019-01-15T17:13:45.892Z,19.63
2019-01-15T17:16:18.488Z,24.57
2019-01-15T17:18:57.744Z,23.13
2019-01-15T17:21:44.098Z,20.83
2019-01-15T17:24:17.287Z,23.97
2019-01-15T17:26:47.514Z,23.93
2019-01-15T17:29:17.565Z,22.57
2019-01-15T17:31:47.691Z,21.17
2019-01-15T17:34:29.437Z,23.60
2019-01-15T17:37:14.541Z,19.70
2019-01-15T17:40:00.722Z,20.40
2019-01-15T17:42:30.827Z,24.87
2019-01-15T17:45:03.622Z,28.07
2019-01-15T17:47:45.669Z,29.30
2019-01-15T17:50:34.207Z,25.87
2019-01-15T17:53:12.846Z,28.43
2019-01-15T17:55:59.037Z,27.13
2019-01-15T17:58:29.132Z,25.57
2019-01-15T18:01:11.437Z,30.10
2019-01-15T18:03:41.516Z,30.77
2019-01-15T18:06:23.751Z,30.67
2019-01-15T18:08:53.832Z,26.70
2019-01-15T18:11:40.027Z,28.43
2019-01-15T18:14:27.211Z,28.53
2019-01-15T18:17:00.302Z,31.73
2019-01-15T18:19:33.125Z,30.93
2019-01-15T18:22:03.248Z,33.17
2019-01-15T18:24:33.355Z,32.23
2019-01-15T18:27:06.411Z,33.30
2019-01-15T18:29:36.503Z,28.43
2019-01-15T18:32:06.921Z,33.63
2019-01-15T18:34:39.988Z,34.27
2019-01-15T18:37:16.056Z,37.10
2019-01-15T18:39:49.099Z,37.83
2019-01-15T18:42:21.610Z,36.37
2019-01-15T18:44:51.663Z,37.53
2019-01-15T18:47:21.747Z,38.00
2019-01-15T18:50:09.969Z,36.67
2019-01-15T18:52:56.309Z,36.80
2019-01-15T18:55:26.349Z,38.00
2019-01-15T18:58:02.354Z,34.67
2019-01-15T19:00:48.592Z,39.50
2019-01-15T19:03:21.806Z,39.20
2019-01-15T19:05:51.922Z,40.37
2019-01-15T19:08:30.460Z,36.73
2019-01-15T19:11:09.768Z,40.77
2019-01-15T19:13:45.981Z,35.70
2019-01-15T19:16:16.077Z,37.47
2019-01-15T19:19:01.988Z,38.97
2019-01-15T19:21:47.373Z,33.47
2019-01-15T19:24:20.181Z,31.90
2019-01-15T19:27:05.748Z,39.17
2019-01-15T19:29:39.058Z,35.07
2019-01-15T19:32:25.009Z,35.40
2019-01-15T19:35:11.155Z,33.30
2019-01-15T19:37:41.296Z,36.77
2019-01-15T19:40:29.346Z,36.43
2019-01-15T19:43:05.517Z,36.80
2019-01-15T19:45:51.398Z,36.20
2019-01-15T19:48:27.381Z,33.60
2019-01-15T19:51:00.372Z,39.88
2019-01-15T19:53:45.631Z,36.03
2019-01-15T19:56:18.446Z,34.33
2019-01-15T19:58:48.504Z,29.27
2019-01-15T20:01:24.392Z,34.53
2019-01-15T20:03:57.396Z,35.97
2019-01-15T20:06:33.139Z,33.67
2019-01-15T20:09:03.266Z,36.67
2019-01-15T20:11:36.107Z,38.10
2019-01-15T20:14:08.950Z,35.13
2019-01-15T20:16:51.258Z,35.67
2019-01-15T20:19:24.585Z,37.13
2019-01-15T20:21:54.650Z,32.37
2019-01-15T20:24:24.746Z,34.23
2019-01-15T20:26:57.910Z,35.50
2019-01-15T20:29:44.051Z,33.77
2019-01-15T20:32:17.041Z,33.60
2019-01-15T20:34:53.363Z,36.17
2019-01-15T20:37:41.627Z,38.03
2019-01-15T20:40:28.364Z,36.37
2019-01-15T20:42:58.438Z,34.57
2019-01-15T20:45:28.606Z,33.63
2019-01-15T20:48:07.866Z,37.13
2019-01-15T20:50:54.924Z,34.30
2019-01-15T20:53:25.023Z,32.03
2019-01-15T20:56:11.618Z,33.27
2019-01-15T20:58:58.260Z,37.47
2019-01-15T21:01:43.480Z,30.60
2019-01-15T21:04:19.368Z,32.63
2019-01-15T21:07:06.453Z,37.13
2019-01-15T21:09:40.833Z,35.33
2019-01-15T21:12:26.923Z,32.90
2019-01-15T21:15:13.484Z,34.13
2019-01-15T21:17:59.344Z,30.93
2019-01-15T21:20:35.921Z,35.73
2019-01-15T21:23:06.054Z,33.30
2019-01-15T21:25:39.127Z,34.20
2019-01-15T21:28:14.664Z,30.77
2019-01-15T21:30:50.899Z,29.97
2019-01-15T21:33:35.692Z,34.27
2019-01-15T21:36:12.373Z,26.77
2019-01-15T21:38:54.938Z,31.70
2019-01-15T21:41:25.444Z,28.57
2019-01-15T21:44:14.669Z,27.17
2019-01-15T21:46:44.858Z,30.60
2019-01-15T21:49:17.487Z,25.93
2019-01-15T21:51:50.797Z,23.23
2019-01-15T21:54:30.333Z,25.20
2019-01-15T21:57:16.526Z,24.60
2019-01-15T21:59:56.401Z,24.97
2019-01-15T22:02:27.495Z,26.57
2019-01-15T22:05:14.516Z,29.60
2019-01-15T22:08:02.407Z,25.87
2019-01-15T22:10:41.139Z,26.27
2019-01-15T22:13:20.331Z,25.10
2019-01-15T22:16:08.451Z,26.33
2019-01-15T22:18:41.457Z,26.07
2019-01-15T22:21:26.511Z,25.93
2019-01-15T22:23:59.668Z,26.93
2019-01-15T22:26:29.884Z,26.40
2019-01-15T22:29:12.818Z,24.93
2019-01-15T22:31:43.148Z,23.10
2019-01-15T22:34:19.417Z,23.03
2019-01-15T22:36:52.592Z,21.57
2019-01-15T22:39:31.990Z,22.63
2019-01-15T22:42:05.196Z,24.53
2019-01-15T22:44:44.160Z,21.67
2019-01-15T22:47:20.986Z,23.90
2019-01-15T22:49:57.237Z,23.33
2019-01-15T22:52:27.345Z,22.47
2019-01-15T22:55:03.162Z,24.83
2019-01-15T22:57:36.020Z,22.47
2019-01-15T23:00:40.253Z,22.80
2019-01-15T23:03:28.472Z,22.77
2019-01-15T23:06:07.471Z,22.77
2019-01-15T23:08:46.534Z,25.07
2019-01-15T23:11:32.867Z,24.53
2019-01-15T23:14:09.116Z,29.27
2019-01-15T23:16:42.971Z,26.33
2019-01-15T23:19:18.895Z,27.70
2019-01-15T23:21:58.100Z,21.00
2019-01-15T23:24:31.656Z,22.37
2019-01-15T23:27:01.975Z,23.17
2019-01-15T23:29:32.309Z,22.23
2019-01-15T23:32:08.178Z,19.63
2019-01-15T23:34:56.350Z,24.07
2019-01-15T23:37:42.546Z,20.30
2019-01-15T23:40:12.725Z,23.57
2019-01-15T23:42:59.025Z,20.23
2019-01-15T23:45:41.411Z,23.93
2019-01-15T23:48:12.147Z,24.90
2019-01-15T23:50:48.126Z,22.50
2019-01-15T23:53:22.717Z,22.00
2019-01-15T23:56:04.646Z,23.53
2019-01-15T23:58:41.095Z,24.77
